Advance, MO

2:51 AM CDT on August 30, 2014 (GMT -0500)
Farmington Regional | Change Station
CLOSE
Current Station
Airport
Location: Farmington,
Elevation: 945 ft
Nearby Weather Stations

Elev 945 ft 37.76 °N, 90.43 °W | Updated 16 minutes ago

Overcast
Overcast
72 °F
Feels Like 72 °F
N
8
Wind Variable Wind from SSW

Today
High -- | Low -- °F
--% Chance of Precip.
Yesterday
High -- | Low -- °F
Precip. -- in
6:28 AM 7:31 PM
Waxing Crescent, 20% visible
Pressure 29.98 in
Visibility 10.0 miles
Clouds Overcast 10000 ft
Dew Point 68 °F
Humidity 88%
Rainfall 0.00 in
Snow Depth Not available.
UV 0 out of 12
Pollen 10.60 out of 12
Air Quality Not available.
Flu Activity Not available.
METAR KFAM 300735Z AUTO 21007KT 10SM OVC100 22/20 A2998 RMK AO1

More Conditions Fewer Conditions

Pressure 29.98 in
Visibility 10.0 miles
Clouds Overcast 10000 ft
Dew Point 68 °F
Humidity 88%
Rainfall 0.00 in
Snow Depth Not available.
UV 0 out of 12
Pollen 10.60 out of 12
Air Quality Not available.
Flu Activity Not available.
METAR KFAM 300735Z AUTO 21007KT 10SM OVC100 22/20 A2998 RMK AO1

More Conditions Fewer Conditions

10-Day Weather Forecast

Almanac

Astronomy

Aug. 30, 2014 Rise Set
Actual Time 6:28 AM CDT 7:31 PM CDT
Civil Twilight 6:02 AM CDT 7:57 PM CDT
Nautical Twilight 5:30 AM CDT 8:29 PM CDT
Astronomical Twilight 4:57 AM CDT 9:02 PM CDT
Moon 11:08 AM CDT 10:13 PM CDT
Length of Visible Light 13h 55m
Length of Day
13h 02m
Tomorrow will be 2m 15s shorter.
Waxing Crescent, 20% of the Moon is Illuminated
Today
Waxing Crescent
Sep 2
First Quarter
Sep 8
Full
Sep 15
Last Quarter
Sep 24
New

Today's Extremes

State Highs State Lows

Community

WunderPhotos

Upload Photos

1,748,465 photos uploaded!

Nearby

Snow Depth

Station Depth Elevation
No new snow has been reported.

Earthquake Activity

City Distance Mag. Time & Date
No recent earthquake activity has been reported nearby.
Minimum magnitude displayed is 2.5.

Coastal Water Temperatures

Place Temperature
No Stations Reporting

Nearby Weather Stations